Henrique Nogueira

Olheiro-Chefe - Fluminense
4 Abr 2027
Domingo
Processo

Personalidade

Adaptabilidade (14) Ambição (14) Controvérsia (11) Lealdade (18) Pressão (6) Profissionalismo (1) Espírito Esportivo (8) Temperamento (1)

Perfil

Estilo de Treinamento Democrático
Licença Continental C
Determinação 7
Gestão de Pessoas 14
Motivação 14
Disciplina 9
Satisfação no Trabalho
100%
Fadiga
0%
Função Olheiro-Chefe
Salário 99.3K p/s
Contrato 14.03.2029

Desempenho

Comportamento Bom
Eficácia do Treinamento
39%
Desenvolvimento do Jogador
45%
Prevenção de Lesões
50%
Implementação Tática
30%

Eventos Recentes

Avaliou um jogador agora
Participou de uma reunião de recrutamento agora
Avaliou um jogador agora
Avaliou um jogador agora
Avaliou um jogador agora
Avaliou um jogador 7d atrás
Avaliou um jogador 7d atrás
Avaliou um jogador 7d atrás

Monitorando agora

173
Jogador Clube Status Habilidade Confiança Observado Última observação Último voto
Carlos Moreno Pachuca Ativo 142 / 132 40% 5 03.04.2027 -
Simone Scuffet Pisa Ativo 119 / 135 40% 3 03.04.2027 -
Lorenzo Montipò Venezia Ativo 131 / 146 40% 4 03.04.2027 -
Sam Tickle Wigan Athletic Ativo 121 / 132 40% 5 02.04.2027 -
Franco Petroli Olympique de Marseille Ativo 131 / 125 40% 8 02.04.2027 -
Michele Cerofolini Bari Ativo 124 / 135 40% 2 02.04.2027 -
José Manuel López Palmeiras Ativo 129 / 131 40% 3 01.04.2027 -
Yanis Begraoui Estoril Praia Ativo 144 / 140 40% 3 01.04.2027 -
Viktor Johansson Stoke City Ativo 144 / 143 40% 5 01.04.2027 -
Hugo Souza Corinthians Ativo 135 / 139 40% 11 01.04.2027 -
Wesley Saïd RC Lens Ativo 123 / 125 40% 2 01.04.2027 -
Giovanni Simeone Torino Ativo 126 / 131 40% 3 01.04.2027 -
Nemanja Radonjić Crvena Zvezda Ativo 135 / 121 40% 2 01.04.2027 -
Axel Openda KV Oostende Ativo 142 / 133 40% 1 01.04.2027 -
Axel Alderweireld KV Oostende Ativo 139 / 144 40% 4 29.03.2027 -
Wladimiro Falcone Lecce Ativo 150 / 139 40% 9 29.03.2027 -
Edoardo Corvi Parma Ativo 136 / 123 40% 5 29.03.2027 -
Michael Cooper Sheffield United Ativo 136 / 131 40% 8 28.03.2027 -
Radek Vítek Middlesbrough Ativo 128 / 147 40% 12 28.03.2027 -
Juan Soriano Académico de Viseu Ativo 135 / 124 40% 10 27.03.2027 -
Gabriel Batista Botafogo Ativo 139 / 127 40% 11 26.03.2027 -
Jean Butez Como Ativo 149 / 134 40% 6 26.03.2027 -
Balázs Tóth Blackburn Rovers Ativo 117 / 134 40% 7 25.03.2027 -
Lorenzo Palmisani Frosinone Ativo 120 / 129 40% 1 25.03.2027 -
Iñaki Peña Panathinaikos Ativo 134 / 133 40% 2 24.03.2027 -
Bilal Bayazıt Kayserispor Ativo 132 / 133 40% 3 24.03.2027 -
Luis Malagón Club America Ativo 135 / 135 40% 9 23.03.2027 -
Jacob Widell Zetterström Derby County Ativo 128 / 121 40% 5 23.03.2027 -
Patrick Sequeira Casa Pia Ativo 130 / 118 40% 8 22.03.2027 -
Carl Rushworth Coventry City Ativo 145 / 134 40% 15 20.03.2027 -
Bernardo Fontes Braga Ativo 129 / 123 40% 9 20.03.2027 -
Gabriel Brazão Santos Ativo 140 / 132 40% 9 20.03.2027 -
Dany Mota Monza Ativo 127 / 130 40% 2 19.03.2027 -
Alexey Miranchuk Newcastle United Ativo 144 / 133 40% 2 19.03.2027 -
Timothy Kompany Mouscron Ativo 129 / 121 40% 1 19.03.2027 -
Luca Orellano Monterrey Ativo 134 / 130 40% 3 18.03.2027 -
Cesar Corona Veracruz Ativo 145 / 134 40% 7 18.03.2027 -
Iqraam Rayners Mamelodi Sundowns Ativo 141 / 127 40% 1 18.03.2027 -
Antonio Gomis Vizela Ativo 110 / 123 40% 2 16.03.2027 -
Stefano Gori Union Brescia Ativo 113 / 123 40% 1 16.03.2027 -
Facundo Torres Shakhtar Ativo 132 / 134 40% 2 15.03.2027 -
Sebastián Córdova Pumas UNAM Ativo 139 / 129 40% 1 15.03.2027 -
Efraín Álvarez Guadalajara Ativo 131 / 125 40% 1 15.03.2027 -
Carlos Acevedo Santos Laguna Ativo 136 / 126 40% 8 13.03.2027 -
Elia Caprile Cagliari Ativo 133 / 148 40% 4 13.03.2027 -
Michy Fellaini KV Oostende Ativo 138 / 140 40% 4 12.03.2027 -
Anthony Patterson Wrexham Ativo 139 / 122 40% 6 12.03.2027 -
Christian Kouamé Aris Thessaloniki Ativo 139 / 130 40% 2 12.03.2027 -
Nicolas Schmid Portsmouth Ativo 116 / 130 40% 2 12.03.2027 -
Cristian Shpendi Cesena Ativo 144 / 140 40% 1 12.03.2027 -
Cezary Miszta Rio Ave Ativo 125 / 133 40% 11 10.03.2027 -
Dmytro Riznyk Shakhtar Ativo 139 / 130 40% 3 08.03.2027 -
Ruslan Neshcheret Dynamo Kyiv Ativo 131 / 126 40% 1 08.03.2027 -
Tijjani Noslin Lazio Ativo 132 / 138 40% 2 07.03.2027 -
Abdullah Juma Al Ahli Ativo 132 / 125 40% 2 07.03.2027 -
Clayton Olympiacos Ativo 145 / 130 40% 1 07.03.2027 -
Jakub Stolarczyk Leicester City Ativo 138 / 135 40% 7 05.03.2027 -
João Palhinha Benfica Ativo 162 / 153 40% 3 28.02.2027 -
Soufiane Rahimi Al Ain Ativo 148 / 127 40% 2 28.02.2027 -
Beau Reus Waasland-Beveren Ativo 136 / 121 40% 2 24.02.2027 -
Aral Şimşir Trabzonspor Ativo 133 / 139 40% 2 24.02.2027 -
Agustín Palavecino Cruz Azul Ativo 140 / 129 40% 2 24.02.2027 -
Haissem Hassan Bloemfontein Celtic Ativo 148 / 125 40% 2 24.02.2027 -
Dávid Strelec Middlesbrough Ativo 136 / 130 40% 2 19.02.2027 -
Hwang In-Beom Porto Ativo 137 / 152 40% 2 17.02.2027 -
Christian Walton Ipswich Town Ativo 134 / 123 40% 7 13.02.2027 -
Marko Ilić KV Kortrijk Ativo 134 / 133 40% 3 13.02.2027 -
Jonathan Rowe Bologna Ativo 141 / 130 40% 1 12.02.2027 -
Yuki Kakita FC Copenhagen Ativo 138 / 139 40% 4 08.02.2027 -
Rafiu Durosinmi Racing Genk Ativo 136 / 138 40% 2 08.02.2027 -
Manfred Ugalde Spartak Moscow Ativo 131 / 141 40% 1 08.02.2027 -
Mandla Jali SuperSport United Ativo 111 / 121 40% 1 08.02.2027 -
Lucas Cañizares Tondela Ativo 100 / 117 40% 1 08.02.2027 -
Manuel Baldé Wadi Degla Ativo 95 / 101 40% 1 08.02.2027 -
Felipe Augusto Zenit Ativo 131 / 133 40% 1 05.02.2027 -
Arijanet Murić Sassuolo Ativo 151 / 143 40% 2 02.02.2027 -
Nathan Trott Cardiff City Ativo 113 / 124 40% 3 27.01.2027 -
Dean Henderson Crystal Palace Ativo 140 / 145 40% 3 26.01.2027 -
Jamie Cumming Oxford United Ativo 113 / 128 40% 2 23.01.2027 -
Luka Jović AEK Ativo 142 / 144 40% 4 23.01.2027 -
Nelson Insfrán Charleroi Ativo 115 / 131 40% 2 22.01.2027 -
Léo Jardim Vasco da Gama Ativo 144 / 132 40% 6 20.01.2027 -
Isidro Pitta Bragantino Ativo 123 / 126 40% 1 18.01.2027 -
Carlos Vinícius Grêmio Ativo 133 / 139 40% 7 14.01.2027 -
Raúl García Osasuna Ativo 146 / 130 40% 1 13.01.2027 -
Akor Adams Venezia Ativo 134 / 133 40% 1 13.01.2027 -
Marcelo Allende Mamelodi Sundowns Ativo 129 / 134 40% 1 10.01.2027 -
Jesús Ricardo Angulo Toluca Ativo 137 / 128 40% 1 10.01.2027 -
Max O'Leary West Bromwich Albion Ativo 112 / 131 40% 5 05.01.2027 -
João Carvalho Estoril Praia Ativo 128 / 122 40% 1 04.01.2027 -
Andreas Pereira Palmeiras Ativo 133 / 136 40% 1 04.01.2027 -
Bertrand Traoré Sunderland Ativo 139 / 140 40% 1 03.01.2027 -
Moussa Dembélé Al-Ettifaq Ativo 122 / 125 40% 1 03.01.2027 -
Gérson Cruzeiro Ativo 133 / 137 40% 1 27.12.2026 -
Renato Solís Lech Ativo 122 / 116 40% 1 27.12.2026 -
Ángel Correa River Plate Ativo 150 / 147 40% 4 22.12.2026 -
Karim Konaté Red Bull Salzburg Ativo 133 / 145 40% 1 22.12.2026 -
Josh Keeley Luton Town Ativo 109 / 130 40% 1 18.12.2026 -
Cleiton Bragantino Ativo 121 / 121 40% 1 17.12.2026 -
Diego Rossi Monterrey Ativo 129 / 138 40% 5 13.12.2026 -
Aarón Escandell Oviedo Ativo 125 / 132 40% 3 10.12.2026 -
Tomás Marchiori Vélez Ativo 122 / 128 40% 1 07.12.2026 -
Lazar Carević Famalicao Ativo 116 / 119 40% 2 06.12.2026 -
Antonio Sivera Alavés Ativo 143 / 153 40% 1 03.12.2026 -
Leo Román Deportivo La Coruña Ativo 154 / 136 40% 2 02.12.2026 -
Jonmi Magunagoitia Eibar Ativo 116 / 114 40% 2 02.12.2026 -
Marvin Keller Young Boys Rejeitado 136 / 137 67% 1 01.12.2026 -
Israel Reyes Club America Rejeitado 137 / 137 68% 1 01.12.2026 -
Ander Cantero Burgos Ativo 137 / 117 40% 1 01.12.2026 -
Ignacio de Arruabarrena Arouca Ativo 116 / 121 40% 1 01.12.2026 -
Tomáš Chorý Slavia Prague Ativo 131 / 148 40% 6 29.11.2026 -
Nicolò Tresoldi Club Brugge Ativo 121 / 126 40% 1 29.11.2026 -
Renan Lodi Atlético Mineiro Ativo 146 / 143 40% 1 28.11.2026 -
Mahmoud Al Bloushi Al Shabab Ativo 138 / 158 40% 3 26.11.2026 -
Jon Guridi Sevilla Ativo 134 / 136 40% 1 26.11.2026 -
Javi Sánchez Arouca Ativo 129 / 131 40% 1 26.11.2026 -
Afimico Pululu Al-Hazem Ativo 117 / 118 40% 2 23.11.2026 -
Víctor Guzmán Monterrey Ativo 139 / 135 40% 1 22.11.2026 -
Jason Januzaj Mouscron Ativo 134 / 152 40% 3 20.11.2026 -
Carlos Marín Albacete Ativo 125 / 120 40% 1 20.11.2026 -
Henrique Araújo Casa Pia Ativo 121 / 127 40% 2 18.11.2026 -
Zé Leite Oliveirense Ativo 130 / 112 40% 1 18.11.2026 -
Leonardo Lelo Braga Ativo 128 / 134 40% 2 17.11.2026 -
Gustaf Lagerbielke Braga Ativo 126 / 143 40% 1 17.11.2026 -
João Costa Santa Clara Ativo 98 / 116 40% 1 14.11.2026 -
Gorka Guruzeta Athletic Bilbao Ativo 145 / 144 40% 2 12.11.2026 -
Ferreirinha Sport Recife Ativo 141 / 127 40% 2 10.11.2026 -
Arthur Cabral Botafogo Ativo 122 / 122 40% 1 09.11.2026 -
Dani Raba Valencia Ativo 126 / 140 40% 2 05.11.2026 -
Jean-Luc Morin Tours Ativo 136 / 133 40% 1 05.11.2026 -
Álex Remiro Real Sociedad Ativo 145 / 141 40% 1 05.11.2026 -
Kein Sato FC Tokyo Ativo 142 / 120 40% 2 31.10.2026 -
Oli McBurnie Hull City Ativo 120 / 144 40% 5 28.10.2026 -
Exequiel Zeballos Boca Juniors Ativo 132 / 137 40% 3 27.10.2026 -
Takuma Asano Sanfrecce Hiroshima Ativo 135 / 123 40% 3 22.10.2026 -
Youssef En-Nesyri Al-Ittihad Ativo 131 / 132 40% 3 18.10.2026 -
Che Adams Torino Ativo 145 / 134 40% 1 14.10.2026 -
Mojmír Chytil Besiktas Ativo 133 / 142 40% 1 13.10.2026 -
Zeno Debast Sporting CP Ativo 153 / 142 40% 1 11.10.2026 -
Veljko Birmančević Ferencvaros Ativo 121 / 133 40% 3 08.10.2026 -
Sebastián Meza Huracán Ativo 119 / 120 40% 2 06.10.2026 -
Sam Surridge Nashville SC Ativo 123 / 125 40% 1 04.10.2026 -
Nehuén Pérez Porto Ativo 153 / 130 40% 1 30.09.2026 -
Germán Berterame Inter Miami CF Ativo 138 / 138 40% 2 27.09.2026 -
Leandro Trossard Besiktas Ativo 169 / 145 40% 1 27.09.2026 -
Rafael Santos Borré River Plate Ativo 125 / 129 40% 2 26.09.2026 -
Leo Ceara Kashima Antlers Ativo 138 / 127 40% 2 25.09.2026 -
Myrto Uzuni Austin FC Ativo 140 / 135 40% 1 25.09.2026 -
Ezequiel Centurión River Plate Ativo 126 / 128 40% 1 22.09.2026 -
Matt Freese New York City Ativo 127 / 122 40% 1 21.09.2026 -
Samuel Soares Benfica Ativo 112 / 137 40% 1 20.09.2026 -
Kerem Aktürkoğlu Fenerbahce Ativo 134 / 134 40% 2 19.09.2026 -
Zack Steffen Colorado Rapids Ativo 124 / 125 40% 2 18.09.2026 -
Kepa Arrizabalaga Arsenal Ativo 136 / 144 40% 1 18.09.2026 -
Jonas Wind Braga Ativo 118 / 127 40% 1 17.09.2026 -
Nicolás Fernández Mercau New York City Ativo 143 / 130 40% 1 15.09.2026 -
Arthur Palmeiras Ativo 140 / 145 40% 1 15.09.2026 -
Hwang Hee-Chan Wolverhampton Ativo 117 / 132 40% 3 12.09.2026 -
Petar Musa FC Dallas Ativo 127 / 141 40% 2 11.09.2026 -
Grégoire Coudert Burnley Ativo 112 / 118 40% 1 10.09.2026 -
Ricardo Horta Braga Ativo 151 / 142 40% 5 05.09.2026 -
Francisco Moura Porto Ativo 119 / 129 40% 1 04.09.2026 -
Richard Ríos Benfica Ativo 147 / 146 40% 1 04.09.2026 -
Gonzalo Plata Dinamo Moscow Ativo 119 / 142 40% 1 31.08.2026 -
Martín Ojeda Orlando City Ativo 122 / 133 40% 1 24.08.2026 -
Yuma Suzuki Kashima Antlers Ativo 120 / 144 40% 1 21.08.2026 -
Mateo Cassierra Atlético Mineiro Rejeitado 123 / 135 40% 1 16.08.2026 -
Fotis Ioannidis Sporting CP Ativo 122 / 131 40% 1 16.08.2026 -
Denis Bouanga Los Angeles Football Club Ativo 124 / 128 40% 1 11.08.2026 -
Bastien Meupiyou Alverca Ativo 134 / 125 40% 1 07.08.2026 -
João Muniz Sporting CP Ativo 111 / 129 40% 1 07.08.2026 -
Robin Roefs Sunderland Ativo 125 / 138 40% 1 05.08.2026 -
Pablo Campos Levante Ativo 120 / 136 40% 1 01.08.2026 -